Time;durP1;ratioP1;P1;durP2;ratioP2;P2;SDS_P1;SDS_P2;PMS_P1;PMS_P2;Temp;Humidity;BMP_temperature;BMP_pressure;BME280_temperature;BME280_humidity;BME280_pressure;Samples;Min_cycle;Max_cycle;Signal;HPM_P1;HPM_P2
2021/08/21 00:02:14;;;;;;;4.70;3.75;;;;;;;18.11;80.93;98117.41;5072675;28;20060;-85
2021/08/21 00:04:40;;;;;;;6.28;3.80;;;;;;;17.99;82.17;98120.94;5073365;28;20088;-86
2021/08/21 00:07:08;;;;;;;8.65;4.45;;;;;;;17.87;82.40;98128.38;5073623;28;20052;-87
2021/08/21 00:09:34;;;;;;;7.57;4.47;;;;;;;17.80;82.80;98117.84;5055535;28;20028;-86
2021/08/21 00:12:00;;;;;;;4.55;3.13;;;;;;;17.80;82.01;98126.16;5055409;28;20029;-86
2021/08/21 00:14:25;;;;;;;7.45;3.20;;;;;;;17.83;81.78;98130.19;5055650;28;20032;-87
2021/08/21 00:16:51;;;;;;;10.23;4.15;;;;;;;17.85;81.73;98133.47;5073441;28;20020;-88
2021/08/21 00:19:16;;;;;;;4.78;3.58;;;;;;;17.81;82.25;98127.78;5072125;28;20029;-89
2021/08/21 00:21:42;;;;;;;5.18;4.05;;;;;;;17.78;82.43;98125.69;5073364;28;20081;-86
2021/08/21 00:24:07;;;;;;;4.38;3.38;;;;;;;17.75;82.38;98129.13;5073340;28;20063;-87
2021/08/21 00:26:33;;;;;;;6.65;4.05;;;;;;;17.71;82.63;98124.59;5073283;28;20119;-86
2021/08/21 00:28:58;;;;;;;5.30;4.07;;;;;;;17.64;83.57;98127.91;5073438;28;20067;-87
2021/08/21 00:31:24;;;;;;;5.50;4.28;;;;;;;17.67;83.41;98128.03;5072793;28;20039;-87
2021/08/21 00:33:49;;;;;;;6.63;3.83;;;;;;;17.64;82.94;98116.84;5072266;28;20017;-85
2021/08/21 00:36:15;;;;;;;4.82;4.07;;;;;;;17.73;82.88;98125.88;5072498;28;20527;-87
2021/08/21 00:38:41;;;;;;;6.53;3.17;;;;;;;17.67;82.92;98116.16;5073446;28;20027;-86
2021/08/21 00:41:07;;;;;;;6.25;3.65;;;;;;;17.68;83.14;98123.31;5073773;28;20024;-87
2021/08/21 00:43:35;;;;;;;6.78;3.88;;;;;;;17.74;82.64;98121.16;5073380;28;20027;-87
2021/08/21 00:46:00;;;;;;;8.63;3.85;;;;;;;17.77;82.37;98121.28;5073274;28;20515;-87
2021/08/21 00:48:26;;;;;;;5.65;3.78;;;;;;;17.65;82.24;98115.69;5072291;28;20048;-88
2021/08/21 00:50:52;;;;;;;5.20;3.67;;;;;;;17.56;82.53;98126.84;5073369;28;20033;-88
2021/08/21 00:53:18;;;;;;;6.00;4.03;;;;;;;17.59;82.69;98130.88;5073493;28;20020;-88
2021/08/21 00:55:47;;;;;;;4.90;3.45;;;;;;;17.51;83.06;98131.75;5073447;28;20013;-87
2021/08/21 00:58:12;;;;;;;6.70;3.75;;;;;;;17.52;83.49;98125.03;5055599;28;20052;-86
2021/08/21 01:00:38;;;;;;;6.20;4.47;;;;;;;17.63;83.64;98124.34;5073013;28;20075;-86
2021/08/21 01:03:04;;;;;;;5.85;3.75;;;;;;;17.59;83.98;98122.59;5073215;28;20119;-88
2021/08/21 01:05:29;;;;;;;6.13;3.70;;;;;;;17.55;83.64;98121.63;5055839;28;20054;-87
2021/08/21 01:07:55;;;;;;;7.95;3.28;;;;;;;17.56;83.70;98126.84;5073387;28;20040;-89
2021/08/21 01:10:20;;;;;;;5.60;3.85;;;;;;;17.38;85.15;98125.31;5073016;28;20095;-88
2021/08/21 01:12:50;;;;;;;6.03;4.13;;;;;;;17.29;86.47;98126.50;5073103;28;20086;-87
2021/08/21 01:15:19;;;;;;;5.63;3.83;;;;;;;17.23;87.42;98122.31;5073311;28;20116;-86
2021/08/21 01:17:45;;;;;;;6.03;4.45;;;;;;;17.13;87.76;98129.81;5055220;28;20032;-84
2021/08/21 01:20:11;;;;;;;6.68;4.47;;;;;;;17.07;88.10;98130.38;5072967;28;20021;-86
2021/08/21 01:22:37;;;;;;;7.70;4.35;;;;;;;16.92;88.85;98123.44;5054807;28;20024;-87
2021/08/21 01:25:08;;;;;;;10.13;4.55;;;;;;;16.95;89.20;98131.06;5054924;28;20520;-85
2021/08/21 01:27:34;;;;;;;6.65;4.38;;;;;;;16.98;88.50;98122.09;5066253;28;20075;-88
2021/08/21 01:29:59;;;;;;;7.90;5.03;;;;;;;16.88;88.93;98122.50;5055541;28;20088;-87
2021/08/21 01:32:26;;;;;;;6.45;4.40;;;;;;;16.83;89.61;98119.91;5062418;28;20085;-86
2021/08/21 01:34:53;;;;;;;8.90;4.95;;;;;;;16.84;89.58;98127.06;5053532;28;20040;-87
2021/08/21 01:37:20;;;;;;;4.68;3.33;;;;;;;16.89;89.04;98115.81;5035320;28;20025;-83
2021/08/21 01:39:47;;;;;;;6.28;3.70;;;;;;;16.92;88.93;98128.97;5051671;28;20486;-86
2021/08/21 01:42:13;;;;;;;5.68;3.88;;;;;;;16.90;88.38;98130.44;5052950;28;20025;-86
2021/08/21 01:44:39;;;;;;;4.63;3.17;;;;;;;16.92;88.51;98133.69;5052753;28;20064;-87
2021/08/21 01:47:04;;;;;;;7.68;4.38;;;;;;;16.87;88.83;98126.41;5052840;28;20057;-87
2021/08/21 01:49:30;;;;;;;5.78;3.63;;;;;;;16.85;88.79;98134.19;5062166;28;20041;-89
2021/08/21 01:52:03;;;;;;;8.25;4.00;;;;;;;16.78;89.17;98142.22;5059624;28;20048;-86
2021/08/21 01:54:29;;;;;;;6.15;3.90;;;;;;;16.72;89.36;98129.72;5052904;28;20033;-86
2021/08/21 01:56:57;;;;;;;4.78;3.17;;;;;;;16.77;89.69;98143.34;5052446;28;20021;-86
2021/08/21 01:59:26;;;;;;;7.22;4.15;;;;;;;16.78;89.17;98131.16;5053061;28;20040;-88
2021/08/21 02:01:53;;;;;;;10.90;5.28;;;;;;;16.70;88.56;98131.16;5052475;28;20039;-86
2021/08/21 02:04:20;;;;;;;5.30;3.88;;;;;;;16.67;88.60;98129.88;5034893;28;20908;-87
2021/08/21 02:06:46;;;;;;;4.78;3.63;;;;;;;16.68;88.53;98133.47;5034809;28;20079;-87
2021/08/21 02:09:13;;;;;;;11.93;3.97;;;;;;;16.67;88.66;98129.88;5052419;28;20174;-87
2021/08/21 02:11:38;;;;;;;7.32;3.70;;;;;;;16.66;89.10;98141.28;5052327;28;20500;-86
2021/08/21 02:14:04;;;;;;;6.13;3.92;;;;;;;16.63;89.52;98136.41;5055147;28;20028;-87
2021/08/21 02:16:29;;;;;;;8.73;3.92;;;;;;;16.60;89.88;98135.13;5056287;28;20021;-88
2021/08/21 02:18:54;;;;;;;5.95;3.63;;;;;;;16.63;90.15;98134.47;5056162;28;20095;-85
2021/08/21 02:21:21;;;;;;;7.32;3.78;;;;;;;16.68;89.68;98131.50;5055896;28;20041;-85
2021/08/21 02:23:47;;;;;;;8.07;3.70;;;;;;;16.69;88.59;98133.16;5054888;28;20037;-86
2021/08/21 02:26:12;;;;;;;7.07;3.53;;;;;;;16.44;86.90;98136.75;5055662;28;20025;-85
2021/08/21 02:28:38;;;;;;;5.13;3.47;;;;;;;16.43;87.44;98138.72;5054974;28;20550;-85
2021/08/21 02:31:04;;;;;;;14.02;4.60;;;;;;;16.26;88.14;98130.44;5054824;28;20124;-86
2021/08/21 02:33:29;;;;;;;6.80;3.65;;;;;;;16.28;89.51;98130.97;5055840;28;20027;-86
2021/08/21 02:35:55;;;;;;;8.85;4.07;;;;;;;16.25;89.31;98136.31;5055940;28;20466;-86
2021/08/21 02:38:22;;;;;;;11.75;4.55;;;;;;;16.25;90.37;98139.91;5055838;28;20017;-86
2021/08/21 02:40:48;;;;;;;7.00;4.43;;;;;;;16.15;91.18;98128.38;5055849;28;20021;-84
2021/08/21 02:43:13;;;;;;;8.82;4.05;;;;;;;16.17;90.60;98142.66;5054688;28;20025;-86
2021/08/21 02:45:39;;;;;;;9.40;4.15;;;;;;;16.19;90.75;98138.44;5055639;28;20033;-88
2021/08/21 02:48:05;;;;;;;11.07;4.68;;;;;;;16.24;90.39;98141.03;5054254;28;20140;-82
2021/08/21 02:50:30;;;;;;;9.40;4.07;;;;;;;16.25;90.98;98144.59;5055455;28;20033;-88
2021/08/21 02:52:56;;;;;;;9.07;4.10;;;;;;;16.32;90.37;98147.69;5055580;28;20025;-86
2021/08/21 02:55:21;;;;;;;5.63;4.25;;;;;;;16.36;91.10;98143.91;5037979;28;20029;-85
2021/08/21 02:57:46;;;;;;;10.07;5.72;;;;;;;16.47;90.12;98150.72;5055200;28;20025;-85
2021/08/21 03:00:12;;;;;;;5.78;3.70;;;;;;;16.34;89.90;98145.41;5055879;28;20025;-86
2021/08/21 03:02:38;;;;;;;6.82;4.28;;;;;;;16.31;90.20;98152.38;5055037;28;20110;-87
2021/08/21 03:05:04;;;;;;;7.72;4.30;;;;;;;16.26;90.87;98151.72;5055509;28;20021;-87
2021/08/21 03:07:30;;;;;;;13.95;4.40;;;;;;;16.21;90.61;98157.44;5055628;28;20047;-87
2021/08/21 03:09:55;;;;;;;11.63;4.00;;;;;;;16.19;91.11;98151.44;5055336;28;20017;-87
2021/08/21 03:12:21;;;;;;;7.05;3.78;;;;;;;16.24;91.65;98151.25;5055226;28;20052;-86
2021/08/21 03:14:46;;;;;;;8.00;3.97;;;;;;;16.15;91.02;98154.03;5055094;28;20079;-86
2021/08/21 03:17:12;;;;;;;9.65;3.90;;;;;;;16.14;91.08;98152.41;5055175;28;20075;-87
2021/08/21 03:19:37;;;;;;;9.30;4.25;;;;;;;16.11;91.96;98157.75;5055004;28;20025;-86
2021/08/21 03:22:03;;;;;;;7.88;4.38;;;;;;;16.07;91.05;98152.06;5054941;28;20021;-86
2021/08/21 03:24:28;;;;;;;8.05;4.13;;;;;;;16.07;90.95;98158.41;5054463;28;20025;-87
2021/08/21 03:26:54;;;;;;;8.85;4.25;;;;;;;16.02;90.24;98161.34;5036614;28;20489;-87
2021/08/21 03:29:19;;;;;;;5.82;3.85;;;;;;;16.04;90.44;98152.72;5055107;28;20055;-84
2021/08/21 03:31:45;;;;;;;7.53;4.07;;;;;;;16.19;90.84;98159.72;5054634;28;20029;-87
2021/08/21 03:34:10;;;;;;;5.85;4.55;;;;;;;16.15;90.96;98164.25;5055049;28;20473;-86
2021/08/21 03:36:35;;;;;;;5.72;3.75;;;;;;;16.04;90.71;98174.81;5054714;28;20045;-88
2021/08/21 03:39:01;;;;;;;9.55;4.47;;;;;;;16.01;91.29;98165.22;5053731;28;20477;-87
2021/08/21 03:41:26;;;;;;;6.00;3.60;;;;;;;15.98;91.90;98171.41;5055054;28;20032;-86
2021/08/21 03:43:52;;;;;;;5.80;5.00;;;;;;;15.93;92.44;98168.00;5065381;28;20029;-86
2021/08/21 03:46:17;;;;;;;6.25;4.25;;;;;;;15.84;92.65;98159.72;5054581;28;20028;-84
2021/08/21 03:48:42;;;;;;;5.47;4.15;;;;;;;15.92;93.20;98178.22;5054339;28;20041;-85
2021/08/21 03:51:08;;;;;;;8.52;4.03;;;;;;;15.89;93.84;98178.06;5054099;28;20112;-89
2021/08/21 03:53:33;;;;;;;8.13;4.63;;;;;;;15.94;93.58;98180.66;5054299;28;20025;-84
2021/08/21 03:55:59;;;;;;;8.02;3.83;;;;;;;15.91;93.50;98173.81;5053380;28;20115;-86
2021/08/21 03:58:24;;;;;;;5.70;3.95;;;;;;;15.95;93.93;98174.81;5053865;28;20033;-85
2021/08/21 04:00:49;;;;;;;7.05;4.03;;;;;;;15.96;93.45;98183.91;5054658;28;20087;-89
2021/08/21 04:03:15;;;;;;;5.95;3.95;;;;;;;15.81;93.73;98184.41;5054603;28;20025;-87
2021/08/21 04:05:41;;;;;;;6.57;4.53;;;;;;;15.81;93.87;98182.44;5054616;28;20028;-86
2021/08/21 04:08:07;;;;;;;10.27;3.78;;;;;;;15.84;93.60;98190.06;5054238;28;20537;-86
2021/08/21 04:10:33;;;;;;;6.78;3.92;;;;;;;15.90;93.30;98191.53;5054634;28;20123;-87
2021/08/21 04:12:58;;;;;;;7.30;3.97;;;;;;;15.82;93.79;98186.03;5053961;28;20025;-89
2021/08/21 04:15:24;;;;;;;7.93;3.92;;;;;;;15.73;94.24;98191.50;5053773;28;20025;-86
2021/08/21 04:17:49;;;;;;;6.50;4.28;;;;;;;15.63;94.45;98183.53;5054130;28;20040;-87
2021/08/21 04:20:15;;;;;;;6.47;4.10;;;;;;;15.72;94.13;98187.16;5036187;28;20032;-87
2021/08/21 04:22:40;;;;;;;6.07;4.13;;;;;;;15.76;93.82;98188.09;5052974;28;20035;-87
2021/08/21 04:25:07;;;;;;;6.05;3.40;;;;;;;15.70;93.43;98183.88;5054206;28;20033;-85
2021/08/21 04:27:32;;;;;;;8.55;3.95;;;;;;;15.74;93.27;98193.16;5054135;28;20083;-88
2021/08/21 04:29:58;;;;;;;5.57;3.75;;;;;;;15.67;93.44;98192.81;5054663;28;20531;-88
2021/08/21 04:32:23;;;;;;;6.82;3.83;;;;;;;15.82;93.16;98195.09;5054009;28;20036;-86
2021/08/21 04:34:48;;;;;;;6.07;3.92;;;;;;;15.83;92.41;98191.22;5053209;28;20032;-83
2021/08/21 04:37:14;;;;;;;5.80;3.75;;;;;;;15.99;92.44;98208.09;5053010;28;20477;-86
2021/08/21 04:39:39;;;;;;;6.43;3.63;;;;;;;16.08;92.21;98217.19;5053342;28;20053;-85
2021/08/21 04:42:05;;;;;;;4.97;3.55;;;;;;;16.11;91.53;98212.94;5053373;28;20037;-86
2021/08/21 04:44:30;;;;;;;5.45;3.78;;;;;;;16.05;91.87;98215.88;5052296;28;20022;-84
2021/08/21 04:46:56;;;;;;;5.53;4.05;;;;;;;16.02;92.02;98210.19;5053410;28;20511;-87
2021/08/21 04:49:22;;;;;;;5.80;3.85;;;;;;;16.10;92.11;98216.88;5067312;28;20052;-87
2021/08/21 04:51:47;;;;;;;9.70;4.43;;;;;;;16.38;91.10;98226.44;5073266;28;20036;-86
2021/08/21 04:54:13;;;;;;;8.15;3.85;;;;;;;16.37;89.98;98233.91;5073056;28;20035;-84
2021/08/21 04:56:38;;;;;;;7.72;3.90;;;;;;;16.39;90.51;98228.84;5072517;28;20024;-83
2021/08/21 04:59:04;;;;;;;6.30;4.35;;;;;;;16.34;90.21;98228.22;5073693;28;20021;-85
2021/08/21 05:01:29;;;;;;;6.95;4.32;;;;;;;16.45;90.08;98243.31;5055230;28;20029;-88
2021/08/21 05:03:54;;;;;;;5.43;3.88;;;;;;;16.57;88.96;98238.78;5072949;28;20029;-86
2021/08/21 05:06:20;;;;;;;6.18;3.78;;;;;;;16.78;88.08;98244.44;5073059;28;20048;-86
2021/08/21 05:08:45;;;;;;;7.90;4.30;;;;;;;17.03;86.48;98246.31;5055253;28;20027;-89
2021/08/21 05:11:11;;;;;;;5.78;3.90;;;;;;;17.30;85.31;98255.31;5073479;28;20021;-86
2021/08/21 05:13:37;;;;;;;5.88;3.88;;;;;;;17.46;84.42;98248.09;5072999;28;20028;-88
2021/08/21 05:16:02;;;;;;;8.15;4.65;;;;;;;17.47;83.46;98244.19;5072858;28;20032;-88
2021/08/21 05:18:33;;;;;;;9.52;5.00;;;;;;;17.52;83.70;98253.09;5072448;28;20059;-83
2021/08/21 05:21:06;;;;;;;4.82;3.67;;;;;;;17.73;82.68;98253.16;5054378;28;20028;-87
2021/08/21 05:23:37;;;;;;;6.28;3.88;;;;;;;17.70;81.49;98262.13;5072435;28;20059;-84
2021/08/21 05:26:03;;;;;;;5.78;4.03;;;;;;;17.07;84.84;98261.09;5050514;28;20123;-86
2021/08/21 05:28:29;;;;;;;6.93;3.95;;;;;;;17.21;85.26;98268.38;5072688;28;20059;-83
2021/08/21 05:30:54;;;;;;;7.40;4.22;;;;;;;17.59;83.60;98260.91;5073844;28;20037;-85
2021/08/21 05:33:22;;;;;;;11.45;3.40;;;;;;;17.69;83.11;98260.53;5062937;28;20063;-87
2021/08/21 05:35:48;;;;;;;7.03;4.60;;;;;;;17.60;82.99;98263.34;5052867;28;20017;-88
2021/08/21 05:38:14;;;;;;;8.07;3.95;;;;;;;18.03;80.90;98265.84;5051582;28;20106;-87
2021/08/21 05:40:39;;;;;;;8.70;4.35;;;;;;;18.15;80.15;98265.13;5035286;28;20029;-84
2021/08/21 05:43:05;;;;;;;9.15;4.57;;;;;;;18.08;79.10;98271.19;5065410;28;20055;-87
2021/08/21 05:45:31;;;;;;;8.15;4.43;;;;;;;18.07;79.53;98263.22;5036383;28;20056;-84
2021/08/21 05:47:56;;;;;;;8.35;4.07;;;;;;;18.03;79.00;98265.84;5053875;28;20094;-86
2021/08/21 05:50:23;;;;;;;7.28;4.72;;;;;;;18.24;78.94;98267.81;5056810;28;20064;-84
2021/08/21 05:52:49;;;;;;;5.10;3.92;;;;;;;18.23;77.63;98266.22;5056520;28;20071;-85
2021/08/21 05:55:16;;;;;;;9.77;4.15;;;;;;;18.63;77.38;98264.59;5056719;28;20026;-85
2021/08/21 05:57:41;;;;;;;9.38;4.15;;;;;;;17.96;78.03;98265.56;5069546;28;20029;-82
2021/08/21 06:00:08;;;;;;;6.70;4.47;;;;;;;17.91;77.71;98271.31;5080164;28;20036;-82
2021/08/21 06:02:33;;;;;;;7.13;5.13;;;;;;;17.89;78.33;98273.59;5076546;28;20119;-86
2021/08/21 06:04:59;;;;;;;8.05;4.70;;;;;;;18.52;75.41;98280.00;5075818;28;20502;-84
2021/08/21 06:07:24;;;;;;;7.20;5.32;;;;;;;18.80;73.68;98281.03;5076479;28;20024;-86
2021/08/21 06:09:50;;;;;;;6.43;4.10;;;;;;;19.06;72.78;98273.28;5076139;28;20036;-87
2021/08/21 06:12:16;;;;;;;6.32;4.47;;;;;;;19.06;72.96;98289.91;5076391;28;20024;-85
2021/08/21 06:14:41;;;;;;;7.03;4.20;;;;;;;19.10;71.74;98279.78;5075887;28;20047;-86
2021/08/21 06:17:08;;;;;;;7.88;4.93;;;;;;;18.99;72.85;98288.84;5075664;28;20028;-85
2021/08/21 06:19:34;;;;;;;7.22;4.60;;;;;;;18.97;72.64;98289.19;5065861;28;20057;-84
2021/08/21 06:22:00;;;;;;;10.95;5.82;;;;;;;19.26;72.10;98277.94;5092218;28;20488;-87
2021/08/21 06:24:25;;;;;;;13.02;7.72;;;;;;;19.21;72.67;98274.56;5084113;28;20032;-83
2021/08/21 06:26:51;;;;;;;10.07;4.03;;;;;;;19.18;74.18;98281.63;5060912;28;20078;-84
2021/08/21 06:29:16;;;;;;;29.00;16.92;;;;;;;19.46;73.44;98269.91;5077139;28;20074;-85
2021/08/21 06:31:42;;;;;;;19.08;12.23;;;;;;;19.76;72.20;98280.47;5076863;28;20056;-85
2021/08/21 06:34:07;;;;;;;19.30;13.40;;;;;;;19.56;72.05;98281.38;5058904;28;20063;-87
2021/08/21 06:36:32;;;;;;;11.55;7.20;;;;;;;19.59;73.02;98279.84;5076326;28;20024;-85
2021/08/21 06:38:58;;;;;;;29.90;18.92;;;;;;;19.52;72.50;98272.09;5075066;28;20055;-80
2021/08/21 06:41:23;;;;;;;11.25;6.25;;;;;;;19.49;72.84;98271.97;5081058;28;20048;-86
2021/08/21 06:43:49;;;;;;;10.02;6.30;;;;;;;20.23;70.87;98274.38;5077954;28;20028;-87
2021/08/21 06:46:15;;;;;;;9.93;4.93;;;;;;;20.00;69.70;98274.06;5076275;28;20036;-84
2021/08/21 06:48:40;;;;;;;9.65;4.85;;;;;;;19.66;70.59;98269.81;5057159;28;20040;-89
2021/08/21 06:51:05;;;;;;;9.15;4.53;;;;;;;19.72;70.68;98273.97;5057829;28;20069;-87
2021/08/21 06:53:31;;;;;;;11.75;4.88;;;;;;;19.93;69.67;98276.63;5074339;28;20016;-83
2021/08/21 06:56:01;;;;;;;8.43;4.80;;;;;;;19.74;70.64;98273.63;5074181;28;20028;-82
2021/08/21 06:58:26;;;;;;;11.77;4.60;;;;;;;19.78;69.96;98266.22;5073756;28;20021;-82
2021/08/21 07:00:52;;;;;;;15.80;4.35;;;;;;;20.19;69.48;98274.28;5073917;28;20028;-83
2021/08/21 07:03:17;;;;;;;10.13;4.35;;;;;;;20.34;68.22;98269.16;5091681;28;20052;-83
2021/08/21 07:05:42;;;;;;;5.55;4.00;;;;;;;20.53;67.35;98274.91;5092530;28;20021;-81
2021/08/21 07:08:08;;;;;;;8.40;3.83;;;;;;;20.81;66.17;98278.50;5092173;28;20055;-80
2021/08/21 07:10:33;;;;;;;8.02;5.47;;;;;;;20.90;65.42;98270.81;5091567;28;20059;-87
2021/08/21 07:12:59;;;;;;;11.15;4.32;;;;;;;21.30;65.30;98270.75;5074530;28;20123;-82
2021/08/21 07:15:24;;;;;;;6.97;4.85;;;;;;;21.50;63.36;98274.41;5055966;28;20388;-80
2021/08/21 07:17:49;;;;;;;9.30;5.15;;;;;;;22.28;60.92;98269.56;5072937;28;20031;-80
2021/08/21 07:20:15;;;;;;;10.45;4.18;;;;;;;22.83;58.97;98275.97;5073042;28;20554;-79
2021/08/21 07:22:40;;;;;;;9.25;4.13;;;;;;;23.07;57.75;98272.84;5073671;28;20024;-82
2021/08/21 07:25:06;;;;;;;7.20;3.83;;;;;;;23.07;57.93;98274.81;5072797;28;20500;-80
2021/08/21 07:27:31;;;;;;;13.65;4.40;;;;;;;23.87;55.01;98263.53;5073198;28;20033;-83
2021/08/21 07:29:57;;;;;;;8.45;4.55;;;;;;;23.50;55.52;98270.84;5073459;28;20028;-82
2021/08/21 07:32:22;;;;;;;44.35;31.48;;;;;;;23.60;54.52;98270.22;5054738;28;20476;-84
2021/08/21 07:34:48;;;;;;;8.38;4.75;;;;;;;24.17;53.48;98272.78;5074846;28;20437;-81
2021/08/21 07:37:13;;;;;;;6.22;3.72;;;;;;;24.41;52.03;98272.34;5075787;28;20077;-83
2021/08/21 07:39:38;;;;;;;6.85;4.30;;;;;;;25.00;50.62;98276.28;5074269;28;20023;-82
2021/08/21 07:42:04;;;;;;;5.35;3.97;;;;;;;24.36;53.21;98278.28;5056978;28;20373;-84
2021/08/21 07:44:29;;;;;;;11.00;4.35;;;;;;;24.36;52.57;98281.06;5075401;28;20498;-82
2021/08/21 07:46:55;;;;;;;4.93;3.63;;;;;;;23.94;53.58;98274.78;5084485;28;20039;-85
2021/08/21 07:49:20;;;;;;;7.60;4.40;;;;;;;23.31;54.83;98275.28;5079999;28;20083;-85
2021/08/21 07:51:46;;;;;;;10.57;3.88;;;;;;;23.39;54.89;98277.06;5084218;28;20082;-85
2021/08/21 07:54:11;;;;;;;12.05;5.05;;;;;;;24.21;52.85;98268.06;5065401;28;20021;-87
2021/08/21 07:56:37;;;;;;;7.28;3.90;;;;;;;24.84;50.66;98273.72;5063037;28;20033;-84
2021/08/21 07:59:02;;;;;;;5.10;3.88;;;;;;;25.71;48.55;98271.47;5055592;28;20112;-83
2021/08/21 08:01:28;;;;;;;11.80;3.72;;;;;;;25.87;47.68;98269.19;5056740;28;20021;-83
2021/08/21 08:03:54;;;;;;;9.27;3.47;;;;;;;26.37;46.03;98274.00;5058170;28;20024;-83
2021/08/21 08:06:19;;;;;;;8.50;4.10;;;;;;;28.56;42.94;98282.06;5061278;28;20059;-83
2021/08/21 08:08:45;;;;;;;4.47;3.75;;;;;;;28.50;42.05;98284.50;5054501;28;20028;-87
2021/08/21 08:11:10;;;;;;;8.75;3.97;;;;;;;28.18;42.43;98278.13;5052336;28;20041;-84
2021/08/21 08:13:36;;;;;;;5.47;3.75;;;;;;;27.62;44.23;98279.69;5054792;28;20029;-78
2021/08/21 08:16:02;;;;;;;4.88;3.38;;;;;;;28.22;42.61;98284.53;5052014;28;20017;-80
2021/08/21 08:18:27;;;;;;;6.30;3.63;;;;;;;28.50;42.10;98284.50;5071674;28;20025;-78
2021/08/21 08:20:53;;;;;;;4.70;4.15;;;;;;;28.45;41.90;98287.69;5071697;28;20027;-78
2021/08/21 08:23:18;;;;;;;3.67;2.63;;;;;;;28.95;39.37;98281.94;5071346;28;20036;-78
2021/08/21 08:25:43;;;;;;;6.32;3.75;;;;;;;28.32;40.92;98283.69;5070307;28;20032;-81
2021/08/21 08:28:09;;;;;;;5.55;3.58;;;;;;;29.31;39.37;98277.78;5071067;28;20030;-79
2021/08/21 08:30:34;;;;;;;7.60;2.90;;;;;;;29.66;37.50;98277.53;5071712;28;20028;-79
2021/08/21 08:33:00;;;;;;;5.57;3.20;;;;;;;29.39;38.84;98282.13;5073101;28;20396;-79
2021/08/21 08:35:25;;;;;;;4.65;3.30;;;;;;;29.10;38.46;98272.22;5087360;28;20032;-78
2021/08/21 08:37:51;;;;;;;4.45;3.78;;;;;;;29.88;37.41;98277.41;5075232;28;20487;-79
2021/08/21 08:40:16;;;;;;;6.85;3.65;;;;;;;31.58;34.87;98282.75;5071585;28;20078;-80
2021/08/21 08:42:46;;;;;;;6.25;3.10;;;;;;;30.62;35.29;98280.34;5054765;28;20024;-79
2021/08/21 08:45:16;;;;;;;4.85;3.30;;;;;;;29.61;37.14;98280.78;5065282;28;20554;-79
2021/08/21 08:47:42;;;;;;;5.95;3.78;;;;;;;29.33;38.76;98280.97;5053876;28;20023;-78
2021/08/21 08:50:12;;;;;;;7.28;3.22;;;;;;;30.10;38.03;98278.81;5054754;28;20020;-84
2021/08/21 08:52:39;;;;;;;6.57;3.63;;;;;;;29.13;38.89;98277.81;5054703;28;20054;-81
2021/08/21 08:55:06;;;;;;;8.15;3.55;;;;;;;31.24;35.10;98285.63;5072439;28;20046;-84
2021/08/21 08:57:48;;;;;;;5.20;3.35;;;;;;;31.52;34.75;98278.81;5073108;28;20016;-84
2021/08/21 09:00:26;;;;;;;5.10;3.38;;;;;;;31.90;33.69;98281.44;5070285;28;20113;-83
2021/08/21 09:03:00;;;;;;;6.32;3.65;;;;;;;31.45;34.55;98284.53;5072056;28;20024;-85
2021/08/21 09:05:28;;;;;;;4.40;3.27;;;;;;;32.72;31.86;98285.28;5071632;28;20028;-80
2021/08/21 09:07:57;;;;;;;5.53;3.00;;;;;;;32.82;32.05;98287.13;5068208;28;20112;-79
2021/08/21 09:10:28;;;;;;;6.70;3.60;;;;;;;31.36;34.79;98281.44;5070704;28;20029;-79
2021/08/21 09:13:07;;;;;;;8.30;4.32;;;;;;;31.81;33.50;98279.16;5050450;28;20053;-79
2021/08/21 09:15:36;;;;;;;7.90;3.20;;;;;;;32.18;33.50;98281.81;5059265;28;20024;-79
2021/08/21 09:18:25;;;;;;;5.28;3.30;;;;;;;31.20;34.47;98275.63;5070584;28;20496;-80
2021/08/21 09:20:57;;;;;;;5.80;3.78;;;;;;;31.07;34.65;98274.56;5070415;28;20021;-76
2021/08/21 09:23:35;;;;;;;5.82;3.53;;;;;;;31.73;33.40;98281.31;5070215;28;20032;-78
2021/08/21 09:26:12;;;;;;;5.05;3.20;;;;;;;31.48;35.05;98269.56;5069846;28;20029;-78
2021/08/21 09:28:43;;;;;;;4.70;3.45;;;;;;;31.71;33.00;98274.47;5032955;28;20052;-77
2021/08/21 09:31:19;;;;;;;6.35;3.60;;;;;;;32.63;31.27;98278.59;5068169;28;20135;-77
2021/08/21 09:33:54;;;;;;;11.73;3.65;;;;;;;31.30;33.64;98271.81;5067215;28;20120;-78
2021/08/21 09:36:37;;;;;;;6.32;3.22;;;;;;;32.15;30.88;98271.34;5051634;28;20334;-77
2021/08/21 09:39:08;;;;;;;5.10;3.05;;;;;;;33.27;29.20;98278.06;5069374;28;20040;-79
2021/08/21 09:41:51;;;;;;;10.32;3.28;;;;;;;33.04;29.29;98270.47;5070047;28;20083;-78
2021/08/21 09:44:28;;;;;;;6.00;2.83;;;;;;;34.38;27.44;98277.88;5050667;28;20473;-77
2021/08/21 09:47:15;;;;;;;5.28;3.08;;;;;;;35.83;26.44;98280.13;5068159;28;20086;-79
2021/08/21 09:49:44;;;;;;;4.55;2.83;;;;;;;35.12;26.29;98270.13;5068669;28;20412;-78
2021/08/21 09:52:15;;;;;;;3.00;2.10;;;;;;;34.07;26.18;98263.22;5066972;28;20032;-78
2021/08/21 09:55:03;;;;;;;7.15;2.40;;;;;;;32.51;28.08;98256.53;5069808;28;20039;-78
2021/08/21 09:57:33;;;;;;;5.38;2.55;;;;;;;32.02;30.04;98261.00;5051896;28;20028;-81
2021/08/21 10:00:05;;;;;;;7.38;2.22;;;;;;;32.81;27.04;98254.31;5069756;28;20060;-78
2021/08/21 10:02:34;;;;;;;4.43;2.67;;;;;;;32.66;26.80;98252.22;5067464;28;20017;-77
2021/08/21 10:05:03;;;;;;;5.70;2.60;;;;;;;33.05;27.31;98249.34;5069301;28;20028;-77
2021/08/21 10:07:34;;;;;;;20.10;3.20;;;;;;;33.87;25.92;98251.94;5067664;28;20021;-78
2021/08/21 10:10:04;;;;;;;4.05;2.20;;;;;;;33.82;26.16;98243.97;5070206;28;20688;-78
2021/08/21 10:12:35;;;;;;;3.03;2.20;;;;;;;34.43;25.81;98257.41;5053195;28;20024;-76
2021/08/21 10:15:05;;;;;;;5.15;3.00;;;;;;;32.59;28.14;98244.66;5069834;28;20035;-77
2021/08/21 10:17:34;;;;;;;3.05;2.65;;;;;;;32.22;28.30;98242.09;5066148;28;20012;-77
2021/08/21 10:20:01;;;;;;;2.90;2.20;;;;;;;33.00;27.97;98238.53;5051728;28;20699;-78
2021/08/21 10:22:28;;;;;;;2.50;2.15;;;;;;;33.99;27.04;98243.97;5050955;28;20033;-79
2021/08/21 10:24:55;;;;;;;3.85;2.58;;;;;;;32.24;28.98;98236.78;5070343;28;20027;-78
2021/08/21 10:27:28;;;;;;;3.67;2.65;;;;;;;31.15;30.35;98228.00;5070416;28;20021;-78
2021/08/21 10:30:14;;;;;;;4.10;2.72;;;;;;;31.39;30.68;98229.66;5068360;28;20516;-78
2021/08/21 10:32:42;;;;;;;3.50;2.60;;;;;;;33.03;28.11;98236.84;5049334;28;20032;-79
2021/08/21 10:35:14;;;;;;;5.82;3.42;;;;;;;32.71;28.48;98234.69;5051907;28;20028;-79
2021/08/21 10:37:45;;;;;;;4.43;2.80;;;;;;;31.96;29.85;98232.41;5054772;28;20075;-77
2021/08/21 10:40:25;;;;;;;4.95;2.78;;;;;;;32.46;29.37;98231.50;5070589;28;20435;-77
2021/08/21 10:43:00;;;;;;;4.70;2.83;;;;;;;33.29;28.16;98224.53;5060791;28;20040;-77
2021/08/21 10:45:46;;;;;;;3.85;2.35;;;;;;;34.52;26.00;98226.31;5072748;28;20039;-79
2021/08/21 10:48:35;;;;;;;7.05;2.72;;;;;;;34.47;25.93;98229.69;5071200;28;20036;-79
2021/08/21 10:51:05;;;;;;;3.88;2.17;;;;;;;32.94;28.63;98219.63;5071641;28;20178;-79
2021/08/21 10:53:41;;;;;;;6.53;2.70;;;;;;;32.32;29.45;98207.91;5081072;28;20025;-80
2021/08/21 10:56:36;;;;;;;4.55;2.63;;;;;;;32.20;29.91;98211.34;5086718;28;20697;-82
2021/08/21 10:59:02;;;;;;;6.82;3.25;;;;;;;30.17;32.66;98210.97;5048417;28;20623;-76
2021/08/21 11:01:28;;;;;;;7.57;2.50;;;;;;;29.68;34.03;98201.75;5052368;28;20024;-78
2021/08/21 11:03:54;;;;;;;4.85;3.65;;;;;;;29.72;33.74;98208.19;5072382;28;20027;-80
2021/08/21 11:06:34;;;;;;;12.32;2.60;;;;;;;29.94;34.74;98206.00;5072099;28;20092;-76
2021/08/21 11:09:02;;;;;;;3.72;3.00;;;;;;;29.99;33.88;98199.06;5071498;28;20039;-78
2021/08/21 11:11:39;;;;;;;5.72;2.95;;;;;;;30.02;33.51;98198.25;5072686;28;20036;-79
2021/08/21 11:14:25;;;;;;;6.15;2.78;;;;;;;30.19;33.61;98198.06;5054365;28;20086;-79
2021/08/21 11:16:54;;;;;;;4.57;2.63;;;;;;;30.65;32.56;98194.72;5072806;28;20021;-77
2021/08/21 11:19:47;;;;;;;5.55;2.65;;;;;;;29.45;34.44;98189.44;5054405;28;20047;-78
2021/08/21 11:22:21;;;;;;;5.38;2.50;;;;;;;29.39;35.17;98189.09;5054323;28;20358;-76
2021/08/21 11:24:53;;;;;;;9.45;3.00;;;;;;;29.43;35.50;98187.06;5054515;28;20039;-77
2021/08/21 11:27:28;;;;;;;6.65;2.92;;;;;;;29.53;34.88;98191.81;5072803;28;20391;-78
2021/08/21 11:30:10;;;;;;;8.50;2.80;;;;;;;29.45;35.17;98192.25;5073395;28;20080;-78
2021/08/21 11:33:06;;;;;;;5.00;3.28;;;;;;;29.82;34.56;98174.63;5072792;28;20063;-77
2021/08/21 11:35:37;;;;;;;3.05;2.65;;;;;;;29.91;35.06;98180.63;5072372;28;20048;-75